sensor_id;sensor_type;location;lat;lon;timestamp;P1;durP1;ratioP1;P2;durP2;ratioP2
15063;SDS011;7631;52.088;5.088;2023-12-29T00:02:01;6.97;;;1.60;;
15063;SDS011;7631;52.088;5.088;2023-12-29T00:04:26;8.37;;;1.97;;
15063;SDS011;7631;52.088;5.088;2023-12-29T00:06:51;5.40;;;2.10;;
15063;SDS011;7631;52.088;5.088;2023-12-29T00:09:17;4.17;;;1.50;;
15063;SDS011;7631;52.088;5.088;2023-12-29T00:11:44;9.10;;;2.00;;
15063;SDS011;7631;52.088;5.088;2023-12-29T00:14:10;4.57;;;1.80;;
15063;SDS011;7631;52.088;5.088;2023-12-29T00:16:35;4.90;;;1.60;;
15063;SDS011;7631;52.088;5.088;2023-12-29T00:19:00;5.33;;;1.70;;
15063;SDS011;7631;52.088;5.088;2023-12-29T00:21:25;6.33;;;1.43;;
15063;SDS011;7631;52.088;5.088;2023-12-29T00:23:50;5.23;;;1.30;;
15063;SDS011;7631;52.088;5.088;2023-12-29T00:26:16;8.10;;;1.80;;
15063;SDS011;7631;52.088;5.088;2023-12-29T00:28:41;6.43;;;2.03;;
15063;SDS011;7631;52.088;5.088;2023-12-29T00:31:07;7.93;;;1.67;;
15063;SDS011;7631;52.088;5.088;2023-12-29T00:33:32;5.20;;;1.57;;
15063;SDS011;7631;52.088;5.088;2023-12-29T00:35:57;4.90;;;1.93;;
15063;SDS011;7631;52.088;5.088;2023-12-29T00:38:23;6.60;;;1.60;;
15063;SDS011;7631;52.088;5.088;2023-12-29T00:40:48;4.70;;;1.50;;
15063;SDS011;7631;52.088;5.088;2023-12-29T00:43:13;6.13;;;1.70;;
15063;SDS011;7631;52.088;5.088;2023-12-29T00:45:38;4.47;;;1.50;;
15063;SDS011;7631;52.088;5.088;2023-12-29T00:48:04;6.57;;;2.13;;
15063;SDS011;7631;52.088;5.088;2023-12-29T00:50:29;5.57;;;1.87;;
15063;SDS011;7631;52.088;5.088;2023-12-29T00:52:54;5.70;;;1.77;;
15063;SDS011;7631;52.088;5.088;2023-12-29T00:55:19;6.83;;;1.47;;
15063;SDS011;7631;52.088;5.088;2023-12-29T00:57:45;4.27;;;1.40;;
15063;SDS011;7631;52.088;5.088;2023-12-29T01:00:10;5.50;;;1.53;;
15063;SDS011;7631;52.088;5.088;2023-12-29T01:02:36;4.43;;;1.70;;
15063;SDS011;7631;52.088;5.088;2023-12-29T01:05:01;6.07;;;2.13;;
15063;SDS011;7631;52.088;5.088;2023-12-29T01:07:26;4.90;;;1.63;;
15063;SDS011;7631;52.088;5.088;2023-12-29T01:09:52;5.83;;;1.50;;
15063;SDS011;7631;52.088;5.088;2023-12-29T01:12:17;6.30;;;1.60;;
15063;SDS011;7631;52.088;5.088;2023-12-29T01:14:42;6.23;;;1.83;;
15063;SDS011;7631;52.088;5.088;2023-12-29T01:17:07;5.93;;;1.50;;
15063;SDS011;7631;52.088;5.088;2023-12-29T01:19:32;4.73;;;1.67;;
15063;SDS011;7631;52.088;5.088;2023-12-29T01:21:58;4.57;;;1.70;;
15063;SDS011;7631;52.088;5.088;2023-12-29T01:24:23;6.07;;;1.60;;
15063;SDS011;7631;52.088;5.088;2023-12-29T01:26:48;4.30;;;1.60;;
15063;SDS011;7631;52.088;5.088;2023-12-29T01:29:13;3.60;;;1.70;;
15063;SDS011;7631;52.088;5.088;2023-12-29T01:31:39;4.30;;;1.50;;
15063;SDS011;7631;52.088;5.088;2023-12-29T01:34:04;6.83;;;1.63;;
15063;SDS011;7631;52.088;5.088;2023-12-29T01:36:29;6.50;;;1.70;;
15063;SDS011;7631;52.088;5.088;2023-12-29T01:38:55;5.40;;;1.80;;
15063;SDS011;7631;52.088;5.088;2023-12-29T01:41:20;5.10;;;1.90;;
15063;SDS011;7631;52.088;5.088;2023-12-29T01:46:30;5.23;;;1.77;;
15063;SDS011;7631;52.088;5.088;2023-12-29T01:48:56;6.00;;;1.80;;
15063;SDS011;7631;52.088;5.088;2023-12-29T01:51:23;5.83;;;1.97;;
15063;SDS011;7631;52.088;5.088;2023-12-29T01:53:49;4.97;;;1.67;;
15063;SDS011;7631;52.088;5.088;2023-12-29T01:56:15;5.83;;;1.77;;
15063;SDS011;7631;52.088;5.088;2023-12-29T01:58:41;5.27;;;1.60;;
15063;SDS011;7631;52.088;5.088;2023-12-29T02:01:07;4.63;;;1.40;;
15063;SDS011;7631;52.088;5.088;2023-12-29T02:03:32;7.87;;;2.30;;
15063;SDS011;7631;52.088;5.088;2023-12-29T02:05:58;3.87;;;1.40;;
15063;SDS011;7631;52.088;5.088;2023-12-29T02:08:23;5.00;;;1.93;;
15063;SDS011;7631;52.088;5.088;2023-12-29T02:10:48;2.93;;;1.50;;
15063;SDS011;7631;52.088;5.088;2023-12-29T02:13:14;4.30;;;1.80;;
15063;SDS011;7631;52.088;5.088;2023-12-29T02:15:39;3.43;;;1.37;;
15063;SDS011;7631;52.088;5.088;2023-12-29T02:18:05;8.50;;;2.40;;
15063;SDS011;7631;52.088;5.088;2023-12-29T02:20:31;4.60;;;1.53;;
15063;SDS011;7631;52.088;5.088;2023-12-29T02:22:56;5.30;;;2.03;;
15063;SDS011;7631;52.088;5.088;2023-12-29T02:25:21;5.23;;;1.67;;
15063;SDS011;7631;52.088;5.088;2023-12-29T02:32:59;3.97;;;1.87;;
15063;SDS011;7631;52.088;5.088;2023-12-29T02:35:26;5.40;;;1.60;;
15063;SDS011;7631;52.088;5.088;2023-12-29T02:37:52;7.43;;;1.90;;
15063;SDS011;7631;52.088;5.088;2023-12-29T02:40:18;5.17;;;1.17;;
15063;SDS011;7631;52.088;5.088;2023-12-29T02:42:47;3.60;;;1.30;;
15063;SDS011;7631;52.088;5.088;2023-12-29T02:45:12;4.53;;;1.50;;
15063;SDS011;7631;52.088;5.088;2023-12-29T02:47:38;6.33;;;1.50;;
15063;SDS011;7631;52.088;5.088;2023-12-29T02:50:03;4.57;;;1.90;;
15063;SDS011;7631;52.088;5.088;2023-12-29T02:52:28;5.80;;;1.90;;
15063;SDS011;7631;52.088;5.088;2023-12-29T02:54:53;5.43;;;1.90;;
15063;SDS011;7631;52.088;5.088;2023-12-29T02:57:19;6.53;;;1.90;;
15063;SDS011;7631;52.088;5.088;2023-12-29T02:59:44;7.30;;;1.73;;
15063;SDS011;7631;52.088;5.088;2023-12-29T03:02:09;5.17;;;1.97;;
15063;SDS011;7631;52.088;5.088;2023-12-29T03:04:34;5.63;;;1.67;;
15063;SDS011;7631;52.088;5.088;2023-12-29T03:06:59;4.67;;;1.70;;
15063;SDS011;7631;52.088;5.088;2023-12-29T03:09:25;4.83;;;1.80;;
15063;SDS011;7631;52.088;5.088;2023-12-29T03:11:50;5.60;;;1.67;;
15063;SDS011;7631;52.088;5.088;2023-12-29T03:14:15;4.40;;;1.53;;
15063;SDS011;7631;52.088;5.088;2023-12-29T03:16:40;5.47;;;2.07;;
15063;SDS011;7631;52.088;5.088;2023-12-29T03:19:05;7.67;;;1.90;;
15063;SDS011;7631;52.088;5.088;2023-12-29T03:21:31;5.23;;;1.80;;
15063;SDS011;7631;52.088;5.088;2023-12-29T03:23:56;4.23;;;1.40;;
15063;SDS011;7631;52.088;5.088;2023-12-29T03:26:21;5.60;;;1.53;;
15063;SDS011;7631;52.088;5.088;2023-12-29T03:28:46;4.77;;;1.63;;
15063;SDS011;7631;52.088;5.088;2023-12-29T03:31:12;5.90;;;1.80;;
15063;SDS011;7631;52.088;5.088;2023-12-29T03:33:37;5.47;;;1.70;;
15063;SDS011;7631;52.088;5.088;2023-12-29T03:36:02;4.60;;;1.83;;
15063;SDS011;7631;52.088;5.088;2023-12-29T03:38:27;6.03;;;1.87;;
15063;SDS011;7631;52.088;5.088;2023-12-29T03:40:52;7.27;;;2.03;;
15063;SDS011;7631;52.088;5.088;2023-12-29T03:43:18;6.10;;;1.70;;
15063;SDS011;7631;52.088;5.088;2023-12-29T03:45:43;6.33;;;2.07;;
15063;SDS011;7631;52.088;5.088;2023-12-29T03:48:08;5.97;;;1.87;;
15063;SDS011;7631;52.088;5.088;2023-12-29T03:50:34;6.63;;;1.80;;
15063;SDS011;7631;52.088;5.088;2023-12-29T03:52:59;6.13;;;2.07;;
15063;SDS011;7631;52.088;5.088;2023-12-29T03:55:24;5.17;;;1.63;;
15063;SDS011;7631;52.088;5.088;2023-12-29T03:57:49;7.57;;;1.63;;
15063;SDS011;7631;52.088;5.088;2023-12-29T04:00:14;6.17;;;2.00;;
15063;SDS011;7631;52.088;5.088;2023-12-29T04:02:40;3.33;;;1.33;;
15063;SDS011;7631;52.088;5.088;2023-12-29T04:05:08;5.40;;;1.80;;
15063;SDS011;7631;52.088;5.088;2023-12-29T04:07:34;5.17;;;1.77;;
15063;SDS011;7631;52.088;5.088;2023-12-29T04:09:59;6.60;;;2.00;;
15063;SDS011;7631;52.088;5.088;2023-12-29T04:12:24;5.97;;;1.73;;
15063;SDS011;7631;52.088;5.088;2023-12-29T04:14:49;6.13;;;1.53;;
15063;SDS011;7631;52.088;5.088;2023-12-29T04:17:14;5.87;;;1.77;;
15063;SDS011;7631;52.088;5.088;2023-12-29T04:19:40;4.23;;;2.00;;
15063;SDS011;7631;52.088;5.088;2023-12-29T04:22:06;4.80;;;1.90;;
15063;SDS011;7631;52.088;5.088;2023-12-29T04:24:31;6.47;;;1.77;;
15063;SDS011;7631;52.088;5.088;2023-12-29T04:26:57;6.67;;;1.67;;
15063;SDS011;7631;52.088;5.088;2023-12-29T04:29:22;7.10;;;2.20;;
15063;SDS011;7631;52.088;5.088;2023-12-29T04:31:47;5.27;;;2.00;;
15063;SDS011;7631;52.088;5.088;2023-12-29T04:34:12;9.57;;;2.77;;
15063;SDS011;7631;52.088;5.088;2023-12-29T04:36:38;7.47;;;1.97;;
15063;SDS011;7631;52.088;5.088;2023-12-29T04:39:03;7.53;;;1.93;;
15063;SDS011;7631;52.088;5.088;2023-12-29T04:41:28;5.40;;;1.73;;
15063;SDS011;7631;52.088;5.088;2023-12-29T04:43:53;4.57;;;1.70;;
15063;SDS011;7631;52.088;5.088;2023-12-29T04:46:18;4.77;;;1.87;;
15063;SDS011;7631;52.088;5.088;2023-12-29T04:48:44;6.50;;;2.10;;
15063;SDS011;7631;52.088;5.088;2023-12-29T04:51:09;7.00;;;2.00;;
15063;SDS011;7631;52.088;5.088;2023-12-29T04:53:34;6.80;;;2.33;;
15063;SDS011;7631;52.088;5.088;2023-12-29T04:55:59;6.20;;;1.90;;
15063;SDS011;7631;52.088;5.088;2023-12-29T04:58:24;7.13;;;1.80;;
15063;SDS011;7631;52.088;5.088;2023-12-29T05:00:50;7.33;;;2.03;;
15063;SDS011;7631;52.088;5.088;2023-12-29T05:03:15;8.57;;;2.17;;
15063;SDS011;7631;52.088;5.088;2023-12-29T05:05:40;7.23;;;2.00;;
15063;SDS011;7631;52.088;5.088;2023-12-29T05:08:06;9.37;;;2.20;;
15063;SDS011;7631;52.088;5.088;2023-12-29T05:10:31;7.40;;;2.20;;
15063;SDS011;7631;52.088;5.088;2023-12-29T05:12:59;5.53;;;2.00;;
15063;SDS011;7631;52.088;5.088;2023-12-29T05:15:24;4.60;;;1.50;;
15063;SDS011;7631;52.088;5.088;2023-12-29T05:17:49;9.03;;;2.10;;
15063;SDS011;7631;52.088;5.088;2023-12-29T05:20:15;6.93;;;1.83;;
15063;SDS011;7631;52.088;5.088;2023-12-29T05:22:40;9.07;;;2.30;;
15063;SDS011;7631;52.088;5.088;2023-12-29T05:25:05;6.63;;;2.10;;
15063;SDS011;7631;52.088;5.088;2023-12-29T05:27:31;7.53;;;2.10;;
15063;SDS011;7631;52.088;5.088;2023-12-29T05:29:56;7.30;;;1.97;;
15063;SDS011;7631;52.088;5.088;2023-12-29T05:32:21;7.10;;;1.90;;
15063;SDS011;7631;52.088;5.088;2023-12-29T05:34:47;5.97;;;1.60;;
15063;SDS011;7631;52.088;5.088;2023-12-29T05:37:12;5.03;;;1.70;;
15063;SDS011;7631;52.088;5.088;2023-12-29T05:39:37;7.70;;;2.00;;
15063;SDS011;7631;52.088;5.088;2023-12-29T05:42:02;5.73;;;2.00;;
15063;SDS011;7631;52.088;5.088;2023-12-29T05:44:28;7.07;;;1.90;;
15063;SDS011;7631;52.088;5.088;2023-12-29T05:46:53;7.87;;;2.10;;
15063;SDS011;7631;52.088;5.088;2023-12-29T05:49:23;6.60;;;1.93;;
15063;SDS011;7631;52.088;5.088;2023-12-29T05:51:48;5.93;;;1.90;;
15063;SDS011;7631;52.088;5.088;2023-12-29T05:54:14;5.07;;;1.60;;
15063;SDS011;7631;52.088;5.088;2023-12-29T05:56:39;5.83;;;1.50;;
15063;SDS011;7631;52.088;5.088;2023-12-29T05:59:04;8.23;;;2.17;;
15063;SDS011;7631;52.088;5.088;2023-12-29T06:01:29;6.80;;;2.17;;
15063;SDS011;7631;52.088;5.088;2023-12-29T06:03:55;6.20;;;1.70;;
15063;SDS011;7631;52.088;5.088;2023-12-29T06:06:20;4.57;;;1.70;;
15063;SDS011;7631;52.088;5.088;2023-12-29T06:08:45;6.03;;;1.80;;
15063;SDS011;7631;52.088;5.088;2023-12-29T06:11:14;4.33;;;1.53;;
15063;SDS011;7631;52.088;5.088;2023-12-29T06:13:39;8.57;;;2.03;;
15063;SDS011;7631;52.088;5.088;2023-12-29T06:16:05;5.50;;;1.70;;
15063;SDS011;7631;52.088;5.088;2023-12-29T06:18:30;5.40;;;1.73;;
15063;SDS011;7631;52.088;5.088;2023-12-29T06:20:55;5.03;;;1.47;;
15063;SDS011;7631;52.088;5.088;2023-12-29T06:23:21;3.03;;;1.20;;
15063;SDS011;7631;52.088;5.088;2023-12-29T06:25:46;5.20;;;2.10;;
15063;SDS011;7631;52.088;5.088;2023-12-29T06:28:11;8.43;;;2.40;;
15063;SDS011;7631;52.088;5.088;2023-12-29T06:30:36;5.50;;;1.83;;
15063;SDS011;7631;52.088;5.088;2023-12-29T06:33:02;5.80;;;1.53;;
15063;SDS011;7631;52.088;5.088;2023-12-29T06:35:27;6.47;;;2.00;;
15063;SDS011;7631;52.088;5.088;2023-12-29T06:37:52;4.20;;;1.73;;
15063;SDS011;7631;52.088;5.088;2023-12-29T06:40:17;4.87;;;1.80;;
15063;SDS011;7631;52.088;5.088;2023-12-29T06:42:43;7.47;;;1.93;;
15063;SDS011;7631;52.088;5.088;2023-12-29T06:45:08;7.83;;;1.90;;
15063;SDS011;7631;52.088;5.088;2023-12-29T06:47:33;7.63;;;2.00;;
15063;SDS011;7631;52.088;5.088;2023-12-29T06:49:59;6.77;;;1.80;;
15063;SDS011;7631;52.088;5.088;2023-12-29T06:52:24;4.03;;;1.40;;
15063;SDS011;7631;52.088;5.088;2023-12-29T06:54:49;6.70;;;1.67;;
15063;SDS011;7631;52.088;5.088;2023-12-29T06:57:14;7.43;;;1.97;;
15063;SDS011;7631;52.088;5.088;2023-12-29T06:59:41;2.83;;;1.27;;
15063;SDS011;7631;52.088;5.088;2023-12-29T07:02:06;4.93;;;1.50;;
15063;SDS011;7631;52.088;5.088;2023-12-29T07:04:32;4.87;;;1.57;;
15063;SDS011;7631;52.088;5.088;2023-12-29T07:06:59;6.60;;;2.20;;
15063;SDS011;7631;52.088;5.088;2023-12-29T07:09:25;5.40;;;1.50;;
15063;SDS011;7631;52.088;5.088;2023-12-29T07:11:50;7.30;;;2.13;;
15063;SDS011;7631;52.088;5.088;2023-12-29T07:14:15;2.53;;;1.23;;
15063;SDS011;7631;52.088;5.088;2023-12-29T07:16:41;4.63;;;1.70;;
15063;SDS011;7631;52.088;5.088;2023-12-29T07:19:06;4.13;;;1.30;;
15063;SDS011;7631;52.088;5.088;2023-12-29T07:21:31;4.90;;;1.70;;
15063;SDS011;7631;52.088;5.088;2023-12-29T07:23:57;6.67;;;2.03;;
15063;SDS011;7631;52.088;5.088;2023-12-29T07:26:22;7.03;;;2.13;;
15063;SDS011;7631;52.088;5.088;2023-12-29T07:28:47;3.47;;;1.80;;
15063;SDS011;7631;52.088;5.088;2023-12-29T07:31:12;4.77;;;1.73;;
15063;SDS011;7631;52.088;5.088;2023-12-29T07:33:38;5.63;;;1.70;;
15063;SDS011;7631;52.088;5.088;2023-12-29T07:36:03;3.20;;;1.30;;
15063;SDS011;7631;52.088;5.088;2023-12-29T07:38:28;3.17;;;1.43;;
15063;SDS011;7631;52.088;5.088;2023-12-29T07:40:53;3.93;;;1.57;;
15063;SDS011;7631;52.088;5.088;2023-12-29T07:43:19;3.60;;;1.43;;
15063;SDS011;7631;52.088;5.088;2023-12-29T07:45:44;2.67;;;1.50;;
15063;SDS011;7631;52.088;5.088;2023-12-29T07:48:09;3.80;;;1.47;;
15063;SDS011;7631;52.088;5.088;2023-12-29T07:50:34;5.33;;;1.47;;
15063;SDS011;7631;52.088;5.088;2023-12-29T07:53:00;4.47;;;1.57;;
15063;SDS011;7631;52.088;5.088;2023-12-29T07:55:28;4.23;;;1.60;;
15063;SDS011;7631;52.088;5.088;2023-12-29T07:57:53;4.00;;;1.43;;
15063;SDS011;7631;52.088;5.088;2023-12-29T08:00:18;4.10;;;1.60;;
15063;SDS011;7631;52.088;5.088;2023-12-29T08:02:43;4.00;;;1.60;;
15063;SDS011;7631;52.088;5.088;2023-12-29T08:05:09;4.03;;;1.73;;
15063;SDS011;7631;52.088;5.088;2023-12-29T08:07:35;4.47;;;1.50;;
15063;SDS011;7631;52.088;5.088;2023-12-29T08:10:02;3.93;;;1.83;;
15063;SDS011;7631;52.088;5.088;2023-12-29T08:12:29;5.17;;;1.60;;
15063;SDS011;7631;52.088;5.088;2023-12-29T08:14:54;5.20;;;1.67;;
15063;SDS011;7631;52.088;5.088;2023-12-29T08:17:20;2.67;;;1.20;;
15063;SDS011;7631;52.088;5.088;2023-12-29T08:19:45;4.93;;;2.10;;
15063;SDS011;7631;52.088;5.088;2023-12-29T08:22:10;3.27;;;1.10;;
15063;SDS011;7631;52.088;5.088;2023-12-29T08:24:39;3.93;;;1.63;;
15063;SDS011;7631;52.088;5.088;2023-12-29T08:27:05;2.70;;;1.23;;
15063;SDS011;7631;52.088;5.088;2023-12-29T08:29:30;4.03;;;1.40;;
15063;SDS011;7631;52.088;5.088;2023-12-29T08:31:55;4.60;;;1.60;;
15063;SDS011;7631;52.088;5.088;2023-12-29T08:34:20;4.93;;;1.30;;
15063;SDS011;7631;52.088;5.088;2023-12-29T08:36:45;3.23;;;1.40;;
15063;SDS011;7631;52.088;5.088;2023-12-29T08:39:11;3.87;;;1.30;;
15063;SDS011;7631;52.088;5.088;2023-12-29T08:41:37;5.43;;;1.60;;
15063;SDS011;7631;52.088;5.088;2023-12-29T08:44:02;4.00;;;1.53;;
15063;SDS011;7631;52.088;5.088;2023-12-29T08:46:28;4.63;;;1.50;;
15063;SDS011;7631;52.088;5.088;2023-12-29T08:48:54;3.10;;;1.67;;
15063;SDS011;7631;52.088;5.088;2023-12-29T08:51:19;4.00;;;1.33;;
15063;SDS011;7631;52.088;5.088;2023-12-29T08:53:45;2.70;;;1.20;;
15063;SDS011;7631;52.088;5.088;2023-12-29T08:56:10;2.60;;;1.23;;
15063;SDS011;7631;52.088;5.088;2023-12-29T08:58:35;4.13;;;1.90;;
15063;SDS011;7631;52.088;5.088;2023-12-29T09:01:00;4.90;;;1.90;;
15063;SDS011;7631;52.088;5.088;2023-12-29T09:03:26;5.87;;;1.73;;
15063;SDS011;7631;52.088;5.088;2023-12-29T09:05:51;4.10;;;1.40;;
15063;SDS011;7631;52.088;5.088;2023-12-29T09:08:16;6.03;;;1.70;;
15063;SDS011;7631;52.088;5.088;2023-12-29T09:10:41;5.47;;;1.40;;
15063;SDS011;7631;52.088;5.088;2023-12-29T09:13:07;5.30;;;2.00;;
15063;SDS011;7631;52.088;5.088;2023-12-29T09:15:32;3.00;;;1.40;;
15063;SDS011;7631;52.088;5.088;2023-12-29T09:17:57;5.17;;;1.40;;
15063;SDS011;7631;52.088;5.088;2023-12-29T09:20:22;4.03;;;1.60;;
15063;SDS011;7631;52.088;5.088;2023-12-29T09:22:48;5.63;;;1.73;;
15063;SDS011;7631;52.088;5.088;2023-12-29T09:25:13;4.30;;;1.90;;
15063;SDS011;7631;52.088;5.088;2023-12-29T09:27:39;5.43;;;1.73;;
15063;SDS011;7631;52.088;5.088;2023-12-29T09:30:04;3.43;;;1.37;;
15063;SDS011;7631;52.088;5.088;2023-12-29T09:32:30;4.43;;;1.70;;
15063;SDS011;7631;52.088;5.088;2023-12-29T09:34:55;3.90;;;1.50;;
15063;SDS011;7631;52.088;5.088;2023-12-29T09:37:20;3.37;;;1.40;;
15063;SDS011;7631;52.088;5.088;2023-12-29T09:39:45;3.40;;;1.70;;
15063;SDS011;7631;52.088;5.088;2023-12-29T09:42:12;3.40;;;1.23;;
15063;SDS011;7631;52.088;5.088;2023-12-29T09:44:38;3.20;;;1.50;;
15063;SDS011;7631;52.088;5.088;2023-12-29T09:47:04;3.13;;;1.20;;
15063;SDS011;7631;52.088;5.088;2023-12-29T09:49:37;3.47;;;1.37;;
15063;SDS011;7631;52.088;5.088;2023-12-29T09:52:04;3.40;;;1.50;;
15063;SDS011;7631;52.088;5.088;2023-12-29T09:54:30;2.67;;;1.20;;
15063;SDS011;7631;52.088;5.088;2023-12-29T09:56:56;3.93;;;1.50;;
15063;SDS011;7631;52.088;5.088;2023-12-29T09:59:21;4.83;;;1.93;;
15063;SDS011;7631;52.088;5.088;2023-12-29T10:01:47;4.27;;;1.10;;
15063;SDS011;7631;52.088;5.088;2023-12-29T10:04:13;3.03;;;1.50;;
15063;SDS011;7631;52.088;5.088;2023-12-29T10:06:40;3.10;;;1.37;;
15063;SDS011;7631;52.088;5.088;2023-12-29T10:09:06;3.07;;;1.00;;
15063;SDS011;7631;52.088;5.088;2023-12-29T10:11:34;2.80;;;1.40;;
15063;SDS011;7631;52.088;5.088;2023-12-29T10:13:59;2.83;;;1.13;;
15063;SDS011;7631;52.088;5.088;2023-12-29T10:16:28;5.13;;;1.47;;
15063;SDS011;7631;52.088;5.088;2023-12-29T10:23:53;3.20;;;1.30;;
15063;SDS011;7631;52.088;5.088;2023-12-29T10:26:21;3.03;;;1.07;;
15063;SDS011;7631;52.088;5.088;2023-12-29T10:28:47;3.67;;;1.77;;
15063;SDS011;7631;52.088;5.088;2023-12-29T10:31:14;2.70;;;1.03;;
15063;SDS011;7631;52.088;5.088;2023-12-29T10:33:40;4.20;;;1.57;;
15063;SDS011;7631;52.088;5.088;2023-12-29T10:36:05;3.20;;;1.20;;
15063;SDS011;7631;52.088;5.088;2023-12-29T10:41:12;2.93;;;1.30;;
15063;SDS011;7631;52.088;5.088;2023-12-29T10:43:41;4.00;;;1.30;;
15063;SDS011;7631;52.088;5.088;2023-12-29T10:46:10;4.40;;;1.50;;
15063;SDS011;7631;52.088;5.088;2023-12-29T10:48:36;3.30;;;1.53;;
15063;SDS011;7631;52.088;5.088;2023-12-29T10:51:02;4.80;;;1.50;;
15063;SDS011;7631;52.088;5.088;2023-12-29T10:53:29;4.90;;;1.37;;
15063;SDS011;7631;52.088;5.088;2023-12-29T10:55:55;4.50;;;1.40;;
15063;SDS011;7631;52.088;5.088;2023-12-29T10:58:20;3.03;;;1.10;;
15063;SDS011;7631;52.088;5.088;2023-12-29T11:00:46;2.67;;;1.10;;
15063;SDS011;7631;52.088;5.088;2023-12-29T11:03:14;4.63;;;1.33;;
15063;SDS011;7631;52.088;5.088;2023-12-29T11:05:45;4.57;;;1.37;;
15063;SDS011;7631;52.088;5.088;2023-12-29T11:08:17;1.93;;;1.00;;
15063;SDS011;7631;52.088;5.088;2023-12-29T11:10:43;6.47;;;1.43;;
15063;SDS011;7631;52.088;5.088;2023-12-29T11:13:09;5.90;;;1.23;;
15063;SDS011;7631;52.088;5.088;2023-12-29T11:15:35;4.13;;;1.30;;
15063;SDS011;7631;52.088;5.088;2023-12-29T11:18:01;4.30;;;1.30;;
15063;SDS011;7631;52.088;5.088;2023-12-29T11:20:28;4.83;;;1.60;;
15063;SDS011;7631;52.088;5.088;2023-12-29T11:22:53;3.87;;;1.13;;
15063;SDS011;7631;52.088;5.088;2023-12-29T11:25:19;4.30;;;1.40;;
15063;SDS011;7631;52.088;5.088;2023-12-29T11:27:44;5.13;;;1.50;;
15063;SDS011;7631;52.088;5.088;2023-12-29T11:30:10;3.30;;;1.20;;
15063;SDS011;7631;52.088;5.088;2023-12-29T11:35:12;4.20;;;1.47;;
15063;SDS011;7631;52.088;5.088;2023-12-29T11:37:50;5.97;;;1.50;;
15063;SDS011;7631;52.088;5.088;2023-12-29T11:40:19;3.90;;;1.10;;
15063;SDS011;7631;52.088;5.088;2023-12-29T11:42:45;4.37;;;1.57;;
15063;SDS011;7631;52.088;5.088;2023-12-29T11:47:50;4.57;;;1.57;;
15063;SDS011;7631;52.088;5.088;2023-12-29T11:50:26;3.47;;;1.30;;
15063;SDS011;7631;52.088;5.088;2023-12-29T11:52:52;5.73;;;1.93;;
15063;SDS011;7631;52.088;5.088;2023-12-29T11:55:18;3.93;;;1.50;;
15063;SDS011;7631;52.088;5.088;2023-12-29T11:57:44;5.03;;;1.77;;
15063;SDS011;7631;52.088;5.088;2023-12-29T12:00:10;3.37;;;1.37;;
15063;SDS011;7631;52.088;5.088;2023-12-29T12:02:35;4.63;;;1.30;;
15063;SDS011;7631;52.088;5.088;2023-12-29T12:05:01;4.40;;;1.50;;
15063;SDS011;7631;52.088;5.088;2023-12-29T12:09:52;6.67;;;1.40;;
15063;SDS011;7631;52.088;5.088;2023-12-29T12:12:38;5.57;;;1.53;;
15063;SDS011;7631;52.088;5.088;2023-12-29T12:15:03;5.37;;;1.50;;
15063;SDS011;7631;52.088;5.088;2023-12-29T12:17:32;5.07;;;1.37;;
15063;SDS011;7631;52.088;5.088;2023-12-29T12:19:59;6.73;;;1.40;;
15063;SDS011;7631;52.088;5.088;2023-12-29T12:22:25;5.73;;;1.80;;
15063;SDS011;7631;52.088;5.088;2023-12-29T12:24:56;5.50;;;1.43;;
15063;SDS011;7631;52.088;5.088;2023-12-29T12:27:23;4.50;;;1.80;;
15063;SDS011;7631;52.088;5.088;2023-12-29T12:29:58;4.27;;;1.43;;
15063;SDS011;7631;52.088;5.088;2023-12-29T12:32:26;4.20;;;1.27;;
15063;SDS011;7631;52.088;5.088;2023-12-29T12:34:52;6.13;;;1.30;;
15063;SDS011;7631;52.088;5.088;2023-12-29T12:39:45;4.43;;;1.37;;
15063;SDS011;7631;52.088;5.088;2023-12-29T12:42:11;6.83;;;1.50;;
15063;SDS011;7631;52.088;5.088;2023-12-29T12:44:39;6.37;;;1.97;;
15063;SDS011;7631;52.088;5.088;2023-12-29T12:47:09;5.73;;;1.53;;
15063;SDS011;7631;52.088;5.088;2023-12-29T12:49:35;4.97;;;1.80;;
15063;SDS011;7631;52.088;5.088;2023-12-29T12:52:01;4.87;;;1.77;;
15063;SDS011;7631;52.088;5.088;2023-12-29T12:54:27;6.50;;;1.55;;
15063;SDS011;7631;52.088;5.088;2023-12-29T12:56:53;9.07;;;2.80;;
15063;SDS011;7631;52.088;5.088;2023-12-29T12:59:18;11.07;;;3.37;;
15063;SDS011;7631;52.088;5.088;2023-12-29T13:01:44;13.03;;;3.90;;
15063;SDS011;7631;52.088;5.088;2023-12-29T13:04:09;16.38;;;4.78;;
15063;SDS011;7631;52.088;5.088;2023-12-29T13:06:39;12.93;;;3.43;;
15063;SDS011;7631;52.088;5.088;2023-12-29T13:09:05;13.73;;;3.60;;
15063;SDS011;7631;52.088;5.088;2023-12-29T13:11:36;10.60;;;3.07;;
15063;SDS011;7631;52.088;5.088;2023-12-29T13:14:01;10.27;;;3.50;;
15063;SDS011;7631;52.088;5.088;2023-12-29T13:18:55;9.93;;;3.27;;
15063;SDS011;7631;52.088;5.088;2023-12-29T13:21:20;10.03;;;2.40;;
15063;SDS011;7631;52.088;5.088;2023-12-29T13:23:46;12.17;;;2.97;;
15063;SDS011;7631;52.088;5.088;2023-12-29T13:26:11;7.93;;;2.57;;
15063;SDS011;7631;52.088;5.088;2023-12-29T13:28:37;11.03;;;2.83;;
15063;SDS011;7631;52.088;5.088;2023-12-29T13:31:02;11.43;;;2.97;;
15063;SDS011;7631;52.088;5.088;2023-12-29T13:33:36;8.57;;;2.30;;
15063;SDS011;7631;52.088;5.088;2023-12-29T13:36:08;8.53;;;2.30;;
15063;SDS011;7631;52.088;5.088;2023-12-29T13:38:36;5.80;;;2.03;;
15063;SDS011;7631;52.088;5.088;2023-12-29T13:41:07;8.23;;;2.90;;
15063;SDS011;7631;52.088;5.088;2023-12-29T13:43:34;10.70;;;2.87;;
15063;SDS011;7631;52.088;5.088;2023-12-29T13:46:00;6.57;;;2.30;;
15063;SDS011;7631;52.088;5.088;2023-12-29T13:48:26;8.60;;;2.30;;
15063;SDS011;7631;52.088;5.088;2023-12-29T13:50:51;6.00;;;2.00;;
15063;SDS011;7631;52.088;5.088;2023-12-29T13:53:20;8.20;;;2.63;;
15063;SDS011;7631;52.088;5.088;2023-12-29T13:55:45;4.73;;;1.90;;
15063;SDS011;7631;52.088;5.088;2023-12-29T13:58:11;7.90;;;2.13;;
15063;SDS011;7631;52.088;5.088;2023-12-29T14:00:37;5.37;;;2.17;;
15063;SDS011;7631;52.088;5.088;2023-12-29T14:03:03;6.60;;;2.20;;
15063;SDS011;7631;52.088;5.088;2023-12-29T14:10:34;7.77;;;2.17;;
15063;SDS011;7631;52.088;5.088;2023-12-29T14:13:18;6.83;;;2.30;;
15063;SDS011;7631;52.088;5.088;2023-12-29T14:15:44;6.57;;;1.90;;
15063;SDS011;7631;52.088;5.088;2023-12-29T14:20:37;5.97;;;1.87;;
15063;SDS011;7631;52.088;5.088;2023-12-29T14:23:03;6.60;;;1.53;;
15063;SDS011;7631;52.088;5.088;2023-12-29T14:25:29;4.90;;;1.43;;
15063;SDS011;7631;52.088;5.088;2023-12-29T14:27:56;4.20;;;1.70;;
15063;SDS011;7631;52.088;5.088;2023-12-29T14:30:21;6.77;;;2.07;;
15063;SDS011;7631;52.088;5.088;2023-12-29T14:32:46;5.33;;;1.60;;
15063;SDS011;7631;52.088;5.088;2023-12-29T14:35:12;6.07;;;1.67;;
15063;SDS011;7631;52.088;5.088;2023-12-29T14:37:37;3.53;;;1.50;;
15063;SDS011;7631;52.088;5.088;2023-12-29T14:40:02;5.50;;;2.10;;
15063;SDS011;7631;52.088;5.088;2023-12-29T14:42:30;4.37;;;1.47;;
15063;SDS011;7631;52.088;5.088;2023-12-29T14:44:55;5.77;;;1.37;;
15063;SDS011;7631;52.088;5.088;2023-12-29T14:47:20;6.53;;;1.70;;
15063;SDS011;7631;52.088;5.088;2023-12-29T14:49:46;5.73;;;1.43;;
15063;SDS011;7631;52.088;5.088;2023-12-29T14:52:11;3.33;;;1.40;;
15063;SDS011;7631;52.088;5.088;2023-12-29T14:54:37;5.80;;;1.60;;
15063;SDS011;7631;52.088;5.088;2023-12-29T14:57:02;5.53;;;1.30;;
15063;SDS011;7631;52.088;5.088;2023-12-29T14:59:27;6.03;;;1.87;;
15063;SDS011;7631;52.088;5.088;2023-12-29T15:01:55;5.70;;;1.80;;
15063;SDS011;7631;52.088;5.088;2023-12-29T15:04:20;4.83;;;1.77;;
15063;SDS011;7631;52.088;5.088;2023-12-29T15:06:46;5.63;;;1.50;;
15063;SDS011;7631;52.088;5.088;2023-12-29T15:09:11;5.40;;;1.60;;
15063;SDS011;7631;52.088;5.088;2023-12-29T15:11:36;6.07;;;1.67;;
15063;SDS011;7631;52.088;5.088;2023-12-29T15:14:02;4.67;;;1.60;;
15063;SDS011;7631;52.088;5.088;2023-12-29T15:16:27;5.23;;;1.50;;
15063;SDS011;7631;52.088;5.088;2023-12-29T15:18:52;5.27;;;1.67;;
15063;SDS011;7631;52.088;5.088;2023-12-29T15:21:17;5.40;;;1.90;;
15063;SDS011;7631;52.088;5.088;2023-12-29T15:23:42;4.67;;;1.77;;
15063;SDS011;7631;52.088;5.088;2023-12-29T15:26:08;6.60;;;1.60;;
15063;SDS011;7631;52.088;5.088;2023-12-29T15:28:33;5.17;;;1.70;;